Time;durP1;ratioP1;P1;durP2;ratioP2;P2;SDS_P1;SDS_P2;PMS_P1;PMS_P2;Temp;Humidity;BMP_temperature;BMP_pressure;BME280_temperature;BME280_humidity;BME280_pressure;Samples;Min_cycle;Max_cycle;Signal;HPM_P1;HPM_P2
2023/01/02 00:00:37;;;;;;;1.75;0.80;;;;;;;;;;4529027;28;20072;-59
2023/01/02 00:02:47;;;;;;;1.25;0.80;;;;;;;;;;4530571;28;20512;-58
2023/01/02 00:04:58;;;;;;;1.70;0.80;;;;;;;;;;4530321;28;20068;-59
2023/01/02 00:07:08;;;;;;;1.27;0.70;;;;;;;;;;4530845;28;20453;-59
2023/01/02 00:09:18;;;;;;;1.85;0.80;;;;;;;;;;4531603;28;20045;-59
2023/01/02 00:11:29;;;;;;;1.15;0.80;;;;;;;;;;4529311;28;20038;-58
2023/01/02 00:13:39;;;;;;;1.23;0.80;;;;;;;;;;4531206;28;20068;-59
2023/01/02 00:15:51;;;;;;;1.30;0.75;;;;;;;;;;4531343;28;20037;-59
2023/01/02 00:18:01;;;;;;;1.20;0.75;;;;;;;;;;4531540;28;20485;-59
2023/01/02 00:20:12;;;;;;;1.83;1.00;;;;;;;;;;4530492;28;20071;-59
2023/01/02 00:22:22;;;;;;;1.20;0.80;;;;;;;;;;4531268;28;20048;-59
2023/01/02 00:24:33;;;;;;;1.27;0.88;;;;;;;;;;4537605;28;20152;-59
2023/01/02 00:26:43;;;;;;;1.92;0.90;;;;;;;;;;4530490;28;20037;-58
2023/01/02 00:28:54;;;;;;;0.85;0.63;;;;;;;;;;4534383;28;20037;-60
2023/01/02 00:31:06;;;;;;;1.42;0.90;;;;;;;;;;4531810;28;20481;-58
2023/01/02 00:33:16;;;;;;;0.85;0.80;;;;;;;;;;4530433;28;20067;-59
2023/01/02 00:35:26;;;;;;;1.20;0.70;;;;;;;;;;4530868;28;20033;-59
2023/01/02 00:37:37;;;;;;;2.25;0.80;;;;;;;;;;4530083;28;20041;-58
2023/01/02 00:39:47;;;;;;;1.70;0.90;;;;;;;;;;4532346;28;20064;-59
2023/01/02 00:41:57;;;;;;;1.40;0.77;;;;;;;;;;4535922;28;20041;-59
2023/01/02 00:44:08;;;;;;;1.48;0.70;;;;;;;;;;4531981;28;20044;-59
2023/01/02 00:46:18;;;;;;;1.13;0.60;;;;;;;;;;4531138;28;20033;-58
2023/01/02 00:48:28;;;;;;;1.27;0.95;;;;;;;;;;4537379;28;20102;-59
2023/01/02 00:50:38;;;;;;;2.22;0.90;;;;;;;;;;4529496;28;20033;-59
2023/01/02 00:52:49;;;;;;;1.10;0.90;;;;;;;;;;4531439;28;20046;-60
2023/01/02 00:55:00;;;;;;;1.65;0.82;;;;;;;;;;4531151;28;20022;-57
2023/01/02 00:57:10;;;;;;;1.35;0.70;;;;;;;;;;4530621;28;20045;-58
2023/01/02 00:59:20;;;;;;;2.72;0.80;;;;;;;;;;4529653;28;20037;-60
2023/01/02 01:01:31;;;;;;;1.17;0.73;;;;;;;;;;4530452;28;20045;-59
2023/01/02 01:03:42;;;;;;;1.75;0.80;;;;;;;;;;4530786;28;20051;-58
2023/01/02 01:05:52;;;;;;;1.40;0.80;;;;;;;;;;4529815;28;20029;-58
2023/01/02 01:08:02;;;;;;;1.42;0.70;;;;;;;;;;4534314;28;20494;-57
2023/01/02 01:10:13;;;;;;;1.45;0.80;;;;;;;;;;4531435;28;20033;-58
2023/01/02 01:12:23;;;;;;;3.00;0.82;;;;;;;;;;4530095;28;20317;-58
2023/01/02 01:14:33;;;;;;;1.55;0.80;;;;;;;;;;4531329;28;20064;-58
2023/01/02 01:16:44;;;;;;;0.80;0.80;;;;;;;;;;4541511;28;20528;-59
2023/01/02 01:18:55;;;;;;;2.47;0.90;;;;;;;;;;4531198;28;20041;-59
2023/01/02 01:21:09;;;;;;;1.25;0.77;;;;;;;;;;4531936;28;20041;-59
2023/01/02 01:23:19;;;;;;;1.23;0.80;;;;;;;;;;4530391;28;20025;-58
2023/01/02 01:25:30;;;;;;;1.58;0.88;;;;;;;;;;4532865;28;20040;-59
2023/01/02 01:27:40;;;;;;;1.52;0.80;;;;;;;;;;4529929;28;20048;-59
2023/01/02 01:29:50;;;;;;;1.00;0.80;;;;;;;;;;4531161;28;20041;-58
2023/01/02 01:32:01;;;;;;;1.70;0.80;;;;;;;;;;4530456;28;20064;-59
2023/01/02 01:34:11;;;;;;;1.58;0.70;;;;;;;;;;4531620;28;20559;-59
2023/01/02 01:36:22;;;;;;;1.52;0.80;;;;;;;;;;4531014;28;20029;-59
2023/01/02 01:38:33;;;;;;;1.90;0.80;;;;;;;;;;4539148;28;20045;-58
2023/01/02 01:40:43;;;;;;;1.25;0.80;;;;;;;;;;4532221;28;20490;-57
2023/01/02 01:42:54;;;;;;;1.45;0.82;;;;;;;;;;4531357;28;20034;-59
2023/01/02 01:45:11;;;;;;;1.00;0.70;;;;;;;;;;4538898;28;20615;-59
2023/01/02 01:47:24;;;;;;;1.73;0.90;;;;;;;;;;4529932;28;20033;-59
2023/01/02 01:49:34;;;;;;;2.35;0.88;;;;;;;;;;4528970;28;20038;-59
2023/01/02 01:51:48;;;;;;;1.92;0.90;;;;;;;;;;4530713;28;20477;-59
2023/01/02 01:54:09;;;;;;;1.13;0.70;;;;;;;;;;4529605;28;20041;-59
2023/01/02 01:56:19;;;;;;;1.10;0.70;;;;;;;;;;4538043;28;20040;-59
2023/01/02 01:58:33;;;;;;;1.85;0.77;;;;;;;;;;4530195;28;20090;-59
2023/01/02 02:00:43;;;;;;;0.82;0.63;;;;;;;;;;4531454;28;20052;-59
2023/01/02 02:02:56;;;;;;;3.33;1.00;;;;;;;;;;4530342;28;20036;-59
2023/01/02 02:05:08;;;;;;;1.83;1.00;;;;;;;;;;4530073;28;20034;-59
2023/01/02 02:07:19;;;;;;;1.75;0.80;;;;;;;;;;4529606;28;20045;-59
2023/01/02 02:09:32;;;;;;;1.65;0.95;;;;;;;;;;4528987;28;20497;-59
2023/01/02 02:11:43;;;;;;;1.65;0.77;;;;;;;;;;4531030;28;21248;-59
2023/01/02 02:13:57;;;;;;;3.72;0.90;;;;;;;;;;4534680;28;20132;-59
2023/01/02 02:16:13;;;;;;;2.00;0.80;;;;;;;;;;4529932;28;20040;-62
2023/01/02 02:18:27;;;;;;;2.00;0.90;;;;;;;;;;4530304;28;20115;-59
2023/01/02 02:20:56;;;;;;;0.75;0.60;;;;;;;;;;4529240;28;20042;-60
2023/01/02 02:23:25;;;;;;;2.55;0.95;;;;;;;;;;4530389;28;20030;-59
2023/01/02 02:25:54;;;;;;;1.77;1.00;;;;;;;;;;4531069;28;20044;-59
2023/01/02 02:28:20;;;;;;;1.73;0.77;;;;;;;;;;4530055;28;20133;-59
2023/01/02 02:30:42;;;;;;;1.38;0.80;;;;;;;;;;4530271;28;20288;-59
2023/01/02 02:33:06;;;;;;;1.65;0.80;;;;;;;;;;4529717;28;20037;-59
2023/01/02 02:35:32;;;;;;;1.45;0.80;;;;;;;;;;4528157;28;20041;-59
2023/01/02 02:37:42;;;;;;;1.33;0.75;;;;;;;;;;4528405;28;20661;-60
2023/01/02 02:39:52;;;;;;;1.48;1.00;;;;;;;;;;4529070;28;20106;-59
2023/01/02 02:42:08;;;;;;;1.42;0.80;;;;;;;;;;4530054;28;20033;-59
2023/01/02 02:44:24;;;;;;;1.17;0.90;;;;;;;;;;4528247;28;20067;-59
2023/01/02 02:46:53;;;;;;;1.23;0.82;;;;;;;;;;4527032;28;20033;-60
2023/01/02 02:49:06;;;;;;;0.95;0.70;;;;;;;;;;4527693;28;20072;-59
2023/01/02 02:51:27;;;;;;;1.35;0.80;;;;;;;;;;4531542;28;20048;-59
2023/01/02 02:53:42;;;;;;;1.73;1.00;;;;;;;;;;4528470;28;20120;-59
2023/01/02 02:55:57;;;;;;;1.40;0.75;;;;;;;;;;4528742;28;20536;-59
2023/01/02 02:58:07;;;;;;;1.65;1.10;;;;;;;;;;4528979;28;20087;-59
2023/01/02 03:00:18;;;;;;;2.10;1.23;;;;;;;;;;4528882;28;20068;-59
2023/01/02 03:02:29;;;;;;;1.60;0.90;;;;;;;;;;4528715;28;20040;-59
2023/01/02 03:04:39;;;;;;;2.65;0.90;;;;;;;;;;4527423;28;20052;-59
2023/01/02 03:06:49;;;;;;;2.95;0.75;;;;;;;;;;4527223;28;20030;-59
2023/01/02 03:09:07;;;;;;;1.02;0.80;;;;;;;;;;4533014;28;20052;-59
2023/01/02 03:11:18;;;;;;;1.30;0.85;;;;;;;;;;4528407;28;20028;-59
2023/01/02 03:13:31;;;;;;;1.45;0.70;;;;;;;;;;4528364;28;20541;-59
2023/01/02 03:15:58;;;;;;;2.17;0.93;;;;;;;;;;4527518;28;20041;-59
2023/01/02 03:18:17;;;;;;;1.15;0.80;;;;;;;;;;4528164;28;20048;-59
2023/01/02 03:20:31;;;;;;;1.35;0.70;;;;;;;;;;4527580;28;20152;-59
2023/01/02 03:22:44;;;;;;;1.25;0.80;;;;;;;;;;4528788;28;20083;-59
2023/01/02 03:24:55;;;;;;;1.08;0.70;;;;;;;;;;4529165;28;20584;-59
2023/01/02 03:27:08;;;;;;;1.27;0.80;;;;;;;;;;4528863;28;20037;-59
2023/01/02 03:29:27;;;;;;;1.75;0.95;;;;;;;;;;4536553;28;20045;-59
2023/01/02 03:31:38;;;;;;;1.63;0.80;;;;;;;;;;4529083;28;21044;-59
2023/01/02 03:33:50;;;;;;;0.95;0.65;;;;;;;;;;4528737;28;20041;-59
2023/01/02 03:36:05;;;;;;;2.35;0.90;;;;;;;;;;4528129;28;20029;-59
2023/01/02 03:38:19;;;;;;;1.10;0.80;;;;;;;;;;4531065;28;20053;-59
2023/01/02 03:40:33;;;;;;;2.40;0.80;;;;;;;;;;4530587;28;20060;-59
2023/01/02 03:42:51;;;;;;;1.85;0.90;;;;;;;;;;4532118;28;20053;-59
2023/01/02 03:45:04;;;;;;;1.63;0.88;;;;;;;;;;4532792;28;21028;-59
2023/01/02 03:47:24;;;;;;;3.15;0.82;;;;;;;;;;4532062;28;20045;-59
2023/01/02 03:49:37;;;;;;;1.25;0.70;;;;;;;;;;4529553;28;20912;-59
2023/01/02 03:51:48;;;;;;;1.13;0.70;;;;;;;;;;4531894;28;20036;-59
2023/01/02 03:53:59;;;;;;;1.95;0.90;;;;;;;;;;4531564;28;20040;-59
2023/01/02 03:56:13;;;;;;;1.20;0.70;;;;;;;;;;4537819;28;20063;-59
2023/01/02 03:58:23;;;;;;;1.73;1.05;;;;;;;;;;4528600;28;20079;-59
2023/01/02 04:00:35;;;;;;;1.10;0.80;;;;;;;;;;4531143;28;20103;-59
2023/01/02 04:03:05;;;;;;;1.45;0.70;;;;;;;;;;4529450;28;20141;-59
2023/01/02 04:05:35;;;;;;;1.60;0.80;;;;;;;;;;4529338;28;20041;-60
2023/01/02 04:07:54;;;;;;;2.03;0.90;;;;;;;;;;4532375;28;20037;-59
2023/01/02 04:10:06;;;;;;;2.00;0.90;;;;;;;;;;4532244;28;20033;-59
2023/01/02 04:12:19;;;;;;;2.17;0.80;;;;;;;;;;4539646;28;20032;-59
2023/01/02 04:14:35;;;;;;;1.98;0.80;;;;;;;;;;4529859;28;20040;-59
2023/01/02 04:16:45;;;;;;;2.25;0.85;;;;;;;;;;4530096;28;20037;-59
2023/01/02 04:19:00;;;;;;;1.63;0.70;;;;;;;;;;4530109;28;20660;-59
2023/01/02 04:21:13;;;;;;;2.33;0.70;;;;;;;;;;4529930;28;20041;-59
2023/01/02 04:23:26;;;;;;;1.65;0.80;;;;;;;;;;4530388;28;20057;-59
2023/01/02 04:25:40;;;;;;;0.90;0.70;;;;;;;;;;4530429;28;20045;-59
2023/01/02 04:27:56;;;;;;;2.05;0.90;;;;;;;;;;4530544;28;20041;-59
2023/01/02 04:30:06;;;;;;;0.80;0.70;;;;;;;;;;4530589;28;20146;-59
2023/01/02 04:32:36;;;;;;;0.95;0.70;;;;;;;;;;4531215;28;20087;-59
2023/01/02 04:34:47;;;;;;;2.40;0.95;;;;;;;;;;4530656;28;20112;-59
2023/01/02 04:36:57;;;;;;;1.38;0.90;;;;;;;;;;4532865;28;20041;-59
2023/01/02 04:39:08;;;;;;;2.17;0.90;;;;;;;;;;4535297;28;20062;-59
2023/01/02 04:41:25;;;;;;;1.20;0.73;;;;;;;;;;4531130;28;20075;-59
2023/01/02 04:43:36;;;;;;;1.13;0.80;;;;;;;;;;4534098;28;20021;-59
2023/01/02 04:45:47;;;;;;;2.28;0.90;;;;;;;;;;4537051;28;20033;-59
2023/01/02 04:47:57;;;;;;;1.13;0.80;;;;;;;;;;4531056;28;20076;-59
2023/01/02 04:50:08;;;;;;;2.13;0.93;;;;;;;;;;4531186;28;20128;-59
2023/01/02 04:52:18;;;;;;;1.13;1.00;;;;;;;;;;4530229;28;20482;-59
2023/01/02 04:54:28;;;;;;;2.63;1.00;;;;;;;;;;4531313;28;20874;-61
2023/01/02 04:56:39;;;;;;;2.83;0.95;;;;;;;;;;4529252;28;20087;-59
2023/01/02 04:58:49;;;;;;;1.42;0.90;;;;;;;;;;4530199;28;20045;-60
2023/01/02 05:00:59;;;;;;;1.80;0.80;;;;;;;;;;4529517;28;20139;-59
2023/01/02 05:03:09;;;;;;;1.52;0.70;;;;;;;;;;4529779;28;20040;-59
2023/01/02 05:05:20;;;;;;;1.33;0.70;;;;;;;;;;4529275;28;20477;-59
2023/01/02 05:07:31;;;;;;;1.80;0.82;;;;;;;;;;4531630;28;20029;-59
2023/01/02 05:09:42;;;;;;;0.80;0.68;;;;;;;;;;4530952;28;20026;-60
2023/01/02 05:11:52;;;;;;;1.92;0.90;;;;;;;;;;4531576;28;20486;-59
2023/01/02 05:14:02;;;;;;;1.10;1.00;;;;;;;;;;4531320;28;20037;-59
2023/01/02 05:16:13;;;;;;;1.15;0.68;;;;;;;;;;4530940;28;20044;-59
2023/01/02 05:18:23;;;;;;;0.85;0.70;;;;;;;;;;4530252;28;20067;-60
2023/01/02 05:20:33;;;;;;;1.23;0.70;;;;;;;;;;4530821;28;20041;-59
2023/01/02 05:25:13;;;;;;;1.45;0.75;;;;;;;;;;4529473;28;20033;-59
2023/01/02 05:27:23;;;;;;;1.48;0.80;;;;;;;;;;4530960;28;20064;-59
2023/01/02 05:29:34;;;;;;;1.73;0.85;;;;;;;;;;4530708;28;20041;-59
2023/01/02 05:31:44;;;;;;;1.50;0.65;;;;;;;;;;4534578;28;20467;-59
2023/01/02 05:33:55;;;;;;;1.48;0.70;;;;;;;;;;4528786;28;20080;-59
2023/01/02 05:36:06;;;;;;;1.30;0.75;;;;;;;;;;4529736;28;20594;-59
2023/01/02 05:38:17;;;;;;;1.65;0.80;;;;;;;;;;4528497;28;20038;-59
2023/01/02 05:40:27;;;;;;;1.25;0.75;;;;;;;;;;4529766;28;20543;-59
2023/01/02 05:42:37;;;;;;;1.27;0.70;;;;;;;;;;4529528;28;20493;-59
2023/01/02 05:44:48;;;;;;;1.42;0.75;;;;;;;;;;4528689;28;20087;-59
2023/01/02 05:46:58;;;;;;;2.50;0.60;;;;;;;;;;4528745;28;20739;-59
2023/01/02 05:49:09;;;;;;;1.80;0.77;;;;;;;;;;4527913;28;20044;-59
2023/01/02 05:51:19;;;;;;;1.50;0.60;;;;;;;;;;4530617;28;20071;-59
2023/01/02 05:53:30;;;;;;;1.90;0.70;;;;;;;;;;4529934;28;20037;-59
2023/01/02 05:55:40;;;;;;;2.15;0.82;;;;;;;;;;4529805;28;20375;-59
2023/01/02 05:57:53;;;;;;;1.38;0.70;;;;;;;;;;4528154;28;20041;-59
2023/01/02 06:00:03;;;;;;;2.33;0.70;;;;;;;;;;4528708;28;20573;-59
2023/01/02 06:02:23;;;;;;;2.50;0.90;;;;;;;;;;4528725;28;20072;-59
2023/01/02 06:04:33;;;;;;;1.92;0.70;;;;;;;;;;4530734;28;20473;-59
2023/01/02 06:06:43;;;;;;;0.93;0.73;;;;;;;;;;4528979;28;20095;-59
2023/01/02 06:08:54;;;;;;;1.40;0.70;;;;;;;;;;4534467;28;20048;-59
2023/01/02 06:11:04;;;;;;;1.60;0.80;;;;;;;;;;4528371;28;20436;-59
2023/01/02 06:13:15;;;;;;;1.05;0.90;;;;;;;;;;4529117;28;20041;-59
2023/01/02 06:15:25;;;;;;;1.75;0.80;;;;;;;;;;4528622;28;20025;-59
2023/01/02 06:17:35;;;;;;;1.65;0.80;;;;;;;;;;4527119;28;20045;-60
2023/01/02 06:19:46;;;;;;;2.50;0.93;;;;;;;;;;4530238;28;20041;-59
2023/01/02 06:21:56;;;;;;;1.88;0.85;;;;;;;;;;4531023;28;20496;-59
2023/01/02 06:24:07;;;;;;;0.95;0.68;;;;;;;;;;4528278;28;20800;-60
2023/01/02 06:26:18;;;;;;;2.10;0.93;;;;;;;;;;4530036;28;20043;-59
2023/01/02 06:28:28;;;;;;;1.42;0.80;;;;;;;;;;4528273;28;20041;-59
2023/01/02 06:30:38;;;;;;;1.58;0.90;;;;;;;;;;4528534;28;20585;-59
2023/01/02 06:32:49;;;;;;;2.13;0.70;;;;;;;;;;4528669;28;20041;-59
2023/01/02 06:34:59;;;;;;;1.13;0.90;;;;;;;;;;4529248;28;20352;-59
2023/01/02 06:37:09;;;;;;;1.13;0.90;;;;;;;;;;4532313;28;20038;-59
2023/01/02 06:39:20;;;;;;;1.15;0.70;;;;;;;;;;4529389;28;20454;-59
2023/01/02 06:41:30;;;;;;;1.63;1.00;;;;;;;;;;4536392;28;20107;-59
2023/01/02 06:43:41;;;;;;;1.88;0.90;;;;;;;;;;4528211;28;20604;-59
2023/01/02 06:45:52;;;;;;;2.28;1.05;;;;;;;;;;4528239;28;20042;-59
2023/01/02 06:48:02;;;;;;;1.67;0.70;;;;;;;;;;4529566;28;20589;-59
2023/01/02 06:50:13;;;;;;;2.13;1.00;;;;;;;;;;4531847;28;20041;-59
2023/01/02 06:52:23;;;;;;;2.20;0.90;;;;;;;;;;4531399;28;20037;-59
2023/01/02 06:54:33;;;;;;;1.42;0.90;;;;;;;;;;4529244;28;20037;-59
2023/01/02 06:56:43;;;;;;;1.65;0.80;;;;;;;;;;4528799;28;20037;-59
2023/01/02 06:58:54;;;;;;;1.58;0.90;;;;;;;;;;4529642;28;20239;-59
2023/01/02 07:01:06;;;;;;;0.85;0.70;;;;;;;;;;4529693;28;20096;-60
2023/01/02 07:03:17;;;;;;;1.52;0.93;;;;;;;;;;4528241;28;20033;-59
2023/01/02 07:05:27;;;;;;;1.48;0.82;;;;;;;;;;4530844;28;20033;-59
2023/01/02 07:07:37;;;;;;;2.55;0.88;;;;;;;;;;4528486;28;20034;-59
2023/01/02 07:09:48;;;;;;;1.23;0.80;;;;;;;;;;4527619;28;20067;-59
2023/01/02 07:11:59;;;;;;;1.33;0.80;;;;;;;;;;4532464;28;20037;-59
2023/01/02 07:14:09;;;;;;;2.40;0.93;;;;;;;;;;4531358;28;20401;-59
2023/01/02 07:16:20;;;;;;;1.50;0.80;;;;;;;;;;4531840;28;20037;-60
2023/01/02 07:18:31;;;;;;;1.45;0.80;;;;;;;;;;4533416;28;20037;-60
2023/01/02 07:20:41;;;;;;;1.05;0.75;;;;;;;;;;4532307;28;20188;-59
2023/01/02 07:22:52;;;;;;;1.77;1.02;;;;;;;;;;4529908;28;20037;-59
2023/01/02 07:25:02;;;;;;;1.27;0.90;;;;;;;;;;4531869;28;20188;-60
2023/01/02 07:27:12;;;;;;;1.83;0.90;;;;;;;;;;4532761;28;20025;-61
2023/01/02 07:29:23;;;;;;;1.70;1.00;;;;;;;;;;4532757;28;20116;-60
2023/01/02 07:31:34;;;;;;;0.98;0.80;;;;;;;;;;4532512;28;20032;-61
2023/01/02 07:33:46;;;;;;;1.45;0.90;;;;;;;;;;4531173;28;20092;-60
2023/01/02 07:36:00;;;;;;;2.17;0.98;;;;;;;;;;4531486;28;20033;-59
2023/01/02 07:38:10;;;;;;;1.35;0.70;;;;;;;;;;4528495;28;20029;-59
2023/01/02 07:40:20;;;;;;;1.45;0.68;;;;;;;;;;4529217;28;20565;-60
2023/01/02 07:42:31;;;;;;;0.80;0.70;;;;;;;;;;4529128;28;20453;-59
2023/01/02 07:44:41;;;;;;;1.02;0.70;;;;;;;;;;4530292;28;20333;-59
2023/01/02 07:46:51;;;;;;;1.75;0.80;;;;;;;;;;4528190;28;20490;-59
2023/01/02 07:49:02;;;;;;;1.23;0.70;;;;;;;;;;4527946;28;20052;-59
2023/01/02 07:51:13;;;;;;;2.55;0.90;;;;;;;;;;4529793;28;20056;-59
2023/01/02 07:53:24;;;;;;;0.75;0.57;;;;;;;;;;4537320;28;20041;-59
2023/01/02 07:55:34;;;;;;;1.17;0.70;;;;;;;;;;4529304;28;20069;-62
2023/01/02 07:57:45;;;;;;;1.10;0.70;;;;;;;;;;4528342;28;20085;-59
2023/01/02 07:59:56;;;;;;;1.73;0.80;;;;;;;;;;4527523;28;20037;-59
2023/01/02 08:02:08;;;;;;;1.40;0.70;;;;;;;;;;4528909;28;20204;-59
2023/01/02 08:04:19;;;;;;;1.23;0.70;;;;;;;;;;4527935;28;20037;-59
2023/01/02 08:06:29;;;;;;;1.23;0.80;;;;;;;;;;4528107;28;20041;-59
2023/01/02 08:08:41;;;;;;;0.80;0.80;;;;;;;;;;4528328;28;20032;-59
2023/01/02 08:10:51;;;;;;;2.88;1.20;;;;;;;;;;4528161;28;20515;-59
2023/01/02 08:13:02;;;;;;;1.92;1.00;;;;;;;;;;4528792;28;20800;-59
2023/01/02 08:15:13;;;;;;;1.20;0.80;;;;;;;;;;4528262;28;20069;-59
2023/01/02 08:17:23;;;;;;;1.30;0.70;;;;;;;;;;4527996;28;20100;-59
2023/01/02 08:19:33;;;;;;;1.73;0.80;;;;;;;;;;4531464;28;20037;-59
2023/01/02 08:21:44;;;;;;;0.98;0.70;;;;;;;;;;4527512;28;20045;-59
2023/01/02 08:23:54;;;;;;;1.30;0.60;;;;;;;;;;4526617;28;20030;-59
2023/01/02 08:26:05;;;;;;;1.55;0.70;;;;;;;;;;4527525;28;20412;-59
2023/01/02 08:28:15;;;;;;;1.67;0.80;;;;;;;;;;4527846;28;20515;-59
2023/01/02 08:30:26;;;;;;;1.30;0.75;;;;;;;;;;4526932;28;20056;-59
2023/01/02 08:32:37;;;;;;;2.13;0.98;;;;;;;;;;4528165;28;20102;-59
2023/01/02 08:34:47;;;;;;;1.75;1.20;;;;;;;;;;4537964;28;20049;-59
2023/01/02 08:36:57;;;;;;;2.65;1.20;;;;;;;;;;4527289;28;20036;-59
2023/01/02 08:39:08;;;;;;;1.60;0.82;;;;;;;;;;4528548;28;20081;-59
2023/01/02 08:41:31;;;;;;;1.85;1.00;;;;;;;;;;4528104;28;20824;-59
2023/01/02 08:43:41;;;;;;;1.10;1.00;;;;;;;;;;4527493;28;20091;-59
2023/01/02 08:45:53;;;;;;;1.08;0.98;;;;;;;;;;4532605;28;20091;-58
2023/01/02 08:48:03;;;;;;;1.15;0.75;;;;;;;;;;4527158;28;20053;-59
2023/01/02 08:50:13;;;;;;;1.58;1.20;;;;;;;;;;4529983;28;20041;-59
2023/01/02 08:52:24;;;;;;;1.77;1.00;;;;;;;;;;4529551;28;20049;-59
2023/01/02 08:54:34;;;;;;;1.83;0.90;;;;;;;;;;4529124;28;20048;-59
2023/01/02 08:56:44;;;;;;;1.23;0.70;;;;;;;;;;4529132;28;20032;-58
2023/01/02 08:58:56;;;;;;;1.20;0.70;;;;;;;;;;4528309;28;20056;-58
2023/01/02 09:01:06;;;;;;;1.63;1.00;;;;;;;;;;4526417;28;20045;-58
2023/01/02 09:03:17;;;;;;;1.42;0.80;;;;;;;;;;4527651;28;20033;-58
2023/01/02 09:05:29;;;;;;;1.40;0.98;;;;;;;;;;4528810;28;20041;-57
2023/01/02 09:07:42;;;;;;;1.60;0.63;;;;;;;;;;4527428;28;20037;-58
2023/01/02 09:09:52;;;;;;;1.38;0.70;;;;;;;;;;4528104;28;20047;-59
2023/01/02 09:12:02;;;;;;;2.50;0.80;;;;;;;;;;4528778;28;20045;-58
2023/01/02 09:14:13;;;;;;;1.23;0.70;;;;;;;;;;4531440;28;20044;-59
2023/01/02 09:16:23;;;;;;;2.28;0.85;;;;;;;;;;4528443;28;20826;-58
2023/01/02 09:18:34;;;;;;;2.17;0.90;;;;;;;;;;4537065;28;20139;-58
2023/01/02 09:20:45;;;;;;;2.38;0.73;;;;;;;;;;4528015;28;20102;-58
2023/01/02 09:22:55;;;;;;;2.28;0.80;;;;;;;;;;4528395;28;20039;-58
2023/01/02 09:25:05;;;;;;;2.63;0.75;;;;;;;;;;4527686;28;20072;-58
2023/01/02 09:27:16;;;;;;;1.55;0.90;;;;;;;;;;4528662;28;20091;-59
2023/01/02 09:29:26;;;;;;;2.72;0.77;;;;;;;;;;4528970;28;20052;-59
2023/01/02 09:31:37;;;;;;;1.20;0.80;;;;;;;;;;4527743;28;20712;-59
2023/01/02 09:33:47;;;;;;;1.65;0.90;;;;;;;;;;4526600;28;20033;-58
2023/01/02 09:36:01;;;;;;;1.48;0.80;;;;;;;;;;4528078;28;20033;-59
2023/01/02 09:38:11;;;;;;;1.40;0.70;;;;;;;;;;4520214;28;21076;-59
2023/01/02 09:40:22;;;;;;;2.38;0.80;;;;;;;;;;4528305;28;20040;-58
2023/01/02 09:42:32;;;;;;;1.55;0.82;;;;;;;;;;4527587;28;20760;-59
2023/01/02 09:44:45;;;;;;;1.30;0.65;;;;;;;;;;4528135;28;20065;-58
2023/01/02 09:46:59;;;;;;;1.75;0.80;;;;;;;;;;4528890;28;20030;-58
2023/01/02 09:49:12;;;;;;;1.10;0.98;;;;;;;;;;4527285;28;20034;-59
2023/01/02 09:51:22;;;;;;;1.15;0.70;;;;;;;;;;4529549;28;20044;-58
2023/01/02 09:53:32;;;;;;;1.77;0.55;;;;;;;;;;4527958;28;21109;-58
2023/01/02 09:55:54;;;;;;;1.95;0.80;;;;;;;;;;4528574;28;20545;-59
2023/01/02 09:58:04;;;;;;;2.30;0.95;;;;;;;;;;4527468;28;20037;-59
2023/01/02 10:00:18;;;;;;;1.50;0.90;;;;;;;;;;4529640;28;20042;-59
2023/01/02 10:02:47;;;;;;;1.02;0.70;;;;;;;;;;4528451;28;20048;-58
2023/01/02 10:05:24;;;;;;;1.55;1.00;;;;;;;;;;4527879;28;20123;-59
2023/01/02 10:07:37;;;;;;;2.00;1.20;;;;;;;;;;4517663;28;20118;-59
2023/01/02 10:09:53;;;;;;;1.67;1.10;;;;;;;;;;4527525;28;20577;-59
2023/01/02 10:12:18;;;;;;;2.30;1.10;;;;;;;;;;4529734;28;20045;-58
2023/01/02 10:14:52;;;;;;;1.67;1.40;;;;;;;;;;4529668;28;20059;-59
2023/01/02 10:17:04;;;;;;;1.75;1.30;;;;;;;;;;4524612;28;20593;-59
2023/01/02 10:19:18;;;;;;;2.35;1.20;;;;;;;;;;4526982;28;20041;-58
2023/01/02 10:21:31;;;;;;;2.67;1.48;;;;;;;;;;4528314;28;20046;-58
2023/01/02 10:23:45;;;;;;;1.67;1.02;;;;;;;;;;4528646;28;20029;-59
2023/01/02 10:26:03;;;;;;;1.27;0.82;;;;;;;;;;4532956;28;20108;-59
2023/01/02 10:28:32;;;;;;;1.70;1.02;;;;;;;;;;4526605;28;20118;-61
2023/01/02 10:30:45;;;;;;;0.80;0.77;;;;;;;;;;4543714;28;20555;-59
2023/01/02 10:33:01;;;;;;;0.80;0.70;;;;;;;;;;4535670;28;20812;-59
2023/01/02 10:35:25;;;;;;;1.53;0.63;;;;;;;;;;4527878;28;20108;-58
2023/01/02 10:37:35;;;;;;;1.02;0.63;;;;;;;;;;4528348;28;20801;-60
2023/01/02 10:39:48;;;;;;;1.00;0.60;;;;;;;;;;4528798;28;20033;-58
2023/01/02 10:41:58;;;;;;;1.23;0.30;;;;;;;;;;4527095;28;20033;-58
2023/01/02 10:44:20;;;;;;;0.55;0.40;;;;;;;;;;4528825;28;20037;-58
2023/01/02 10:46:33;;;;;;;0.50;0.50;;;;;;;;;;4528629;28;20048;-58
2023/01/02 10:48:44;;;;;;;0.80;0.57;;;;;;;;;;4527949;28;20040;-58
2023/01/02 10:50:56;;;;;;;1.00;0.47;;;;;;;;;;4527729;28;20043;-59
2023/01/02 10:53:31;;;;;;;0.55;0.30;;;;;;;;;;4531907;28;20045;-59
2023/01/02 10:55:42;;;;;;;0.50;0.50;;;;;;;;;;4526906;28;20702;-59
2023/01/02 10:57:52;;;;;;;0.50;0.30;;;;;;;;;;4527012;28;20040;-59
2023/01/02 11:00:03;;;;;;;0.45;0.35;;;;;;;;;;4527596;28;20056;-59
2023/01/02 11:02:23;;;;;;;0.30;0.30;;;;;;;;;;4529357;28;20056;-59
2023/01/02 11:04:40;;;;;;;0.30;0.30;;;;;;;;;;4526510;28;20049;-59
2023/01/02 11:06:50;;;;;;;;;;;;;;;;;;4527808;28;20126;-59
2023/01/02 11:09:02;;;;;;;0.30;0.30;;;;;;;;;;4527952;28;20481;-59
2023/01/02 11:11:14;;;;;;;0.77;0.70;;;;;;;;;;4528319;28;20590;-59
2023/01/02 11:13:24;;;;;;;0.45;0.45;;;;;;;;;;4508221;28;20042;-59
2023/01/02 11:15:42;;;;;;;0.63;0.40;;;;;;;;;;4527175;28;20033;-59
2023/01/02 11:17:53;;;;;;;0.40;0.40;;;;;;;;;;4527370;28;20124;-59
2023/01/02 11:20:04;;;;;;;0.50;0.50;;;;;;;;;;4528257;28;20017;-60
2023/01/02 11:22:17;;;;;;;0.40;0.40;;;;;;;;;;4534834;28;20037;-58
2023/01/02 11:24:28;;;;;;;0.40;0.40;;;;;;;;;;4537659;28;20052;-59
2023/01/02 11:26:39;;;;;;;0.50;0.50;;;;;;;;;;4528984;28;20828;-59
2023/01/02 11:28:50;;;;;;;0.40;0.40;;;;;;;;;;4536689;28;20124;-59
2023/01/02 11:31:03;;;;;;;0.40;0.40;;;;;;;;;;4528142;28;20580;-59
2023/01/02 11:33:26;;;;;;;0.38;0.38;;;;;;;;;;4526609;28;20140;-59
2023/01/02 11:35:38;;;;;;;0.40;0.40;;;;;;;;;;4534767;28;20045;-58
2023/01/02 11:37:51;;;;;;;0.40;0.40;;;;;;;;;;4526031;28;20102;-59
2023/01/02 11:40:04;;;;;;;0.40;0.40;;;;;;;;;;4526845;28;20036;-60
2023/01/02 11:44:46;;;;;;;0.40;0.30;;;;;;;;;;4526603;28;20052;-59
2023/01/02 11:46:57;;;;;;;0.73;0.40;;;;;;;;;;4534052;28;20086;-58
2023/01/02 11:49:12;;;;;;;0.30;0.30;;;;;;;;;;4527113;28;20045;-60
2023/01/02 11:51:23;;;;;;;0.22;0.22;;;;;;;;;;4526652;28;20029;-59
2023/01/02 11:53:37;;;;;;;0.20;0.20;;;;;;;;;;4526663;28;20497;-59
2023/01/02 11:55:53;;;;;;;0.25;0.25;;;;;;;;;;4534638;28;20033;-59
2023/01/02 11:58:12;;;;;;;0.20;0.20;;;;;;;;;;4527636;28;20044;-59
2023/01/02 12:00:24;;;;;;;0.20;0.20;;;;;;;;;;4529932;28;20045;-59
2023/01/02 12:02:38;;;;;;;0.30;0.30;;;;;;;;;;4534289;28;20114;-59
2023/01/02 12:04:48;;;;;;;0.20;0.20;;;;;;;;;;4530517;28;20629;-59
2023/01/02 12:07:17;;;;;;;0.30;0.30;;;;;;;;;;4528440;28;20041;-59
2023/01/02 12:09:31;;;;;;;0.22;0.22;;;;;;;;;;4512217;28;20032;-60
2023/01/02 12:11:51;;;;;;;0.30;0.30;;;;;;;;;;4538130;28;20595;-58
2023/01/02 12:14:13;;;;;;;0.30;0.30;;;;;;;;;;4537730;28;20521;-59
2023/01/02 12:16:42;;;;;;;0.22;0.22;;;;;;;;;;4513650;28;20055;-59
2023/01/02 12:18:53;;;;;;;0.52;0.30;;;;;;;;;;4531138;28;20088;-59
2023/01/02 12:21:23;;;;;;;0.30;0.30;;;;;;;;;;4533287;28;20421;-59
2023/01/02 12:23:45;;;;;;;0.20;0.20;;;;;;;;;;4530063;28;20116;-59
2023/01/02 12:26:02;;;;;;;0.20;0.20;;;;;;;;;;4528845;28;20048;-59
2023/01/02 12:28:27;;;;;;;0.20;0.20;;;;;;;;;;4529255;28;20038;-58
2023/01/02 12:30:44;;;;;;;0.30;0.30;;;;;;;;;;4527442;28;20041;-59
2023/01/02 12:33:00;;;;;;;0.20;0.20;;;;;;;;;;4536602;28;20132;-58
2023/01/02 12:35:29;;;;;;;0.30;0.30;;;;;;;;;;4529691;28;20036;-59
2023/01/02 12:37:51;;;;;;;0.30;0.30;;;;;;;;;;4529618;28;20045;-59
2023/01/02 12:40:02;;;;;;;0.32;0.32;;;;;;;;;;4529047;28;20033;-59
2023/01/02 12:42:22;;;;;;;0.30;0.30;;;;;;;;;;4530060;28;20568;-59
2023/01/02 12:44:41;;;;;;;0.40;0.40;;;;;;;;;;4528810;28;20749;-58
2023/01/02 12:46:52;;;;;;;0.47;0.47;;;;;;;;;;4530951;28;20046;-58
2023/01/02 12:49:03;;;;;;;0.60;0.60;;;;;;;;;;4528654;28;20021;-58
2023/01/02 12:51:16;;;;;;;0.60;0.60;;;;;;;;;;4529649;28;20045;-59
2023/01/02 12:53:30;;;;;;;0.70;0.70;;;;;;;;;;4530782;28;21199;-59
2023/01/02 12:55:54;;;;;;;0.70;0.70;;;;;;;;;;4530932;28;20045;-59
2023/01/02 12:58:04;;;;;;;0.70;0.70;;;;;;;;;;4530436;28;20041;-59
2023/01/02 13:00:35;;;;;;;0.70;0.70;;;;;;;;;;4529499;28;20033;-59
2023/01/02 13:03:05;;;;;;;0.50;0.50;;;;;;;;;;4538183;28;20045;-59
2023/01/02 13:05:20;;;;;;;0.60;0.60;;;;;;;;;;4529699;28;20750;-59
2023/01/02 13:07:35;;;;;;;0.70;0.70;;;;;;;;;;4526876;28;20044;-58
2023/01/02 13:09:47;;;;;;;0.60;0.60;;;;;;;;;;4528117;28;20051;-59
2023/01/02 13:12:04;;;;;;;0.52;0.52;;;;;;;;;;4529423;28;20059;-59
2023/01/02 13:14:14;;;;;;;;;;;;;;;;;;4539369;28;20607;-59
2023/01/02 13:16:25;;;;;;;0.80;0.80;;;;;;;;;;4528393;28;19920;-60
2023/01/02 13:18:35;;;;;;;0.90;0.60;;;;;;;;;;4519017;28;20280;-60
2023/01/02 13:21:15;;;;;;;0.50;0.50;;;;;;;;;;4528477;28;20045;-59
2023/01/02 13:23:30;;;;;;;0.60;0.60;;;;;;;;;;4520974;28;20056;-59